Airfield :
LOGIN :

Register | Disclaimer

   EN    FR    IT 

 










Legend :    VFR   Marginal VFR   IFR   Intensive IFR   Very Intensive IFR
Visi :
Ceiling :
>= 8 km
>= 3000ft
5 to 8 km
1000 to 3000 ft
1500m to 5 km
500 to 1000 ft
800 to 1500m
200 to 500 ft
< 800m
< 200 ft
Symbols :   Thunderstorms  Fog  Heavy snow  Heavy precipitations  Wind > 20 kt
SIGMETs :     Misc.  Thunderstorms  Icing  Turbulence  Mountain Waves  Volcanic Ashes






- Airport Elevation : 125 ft
- IATA code : MGL


EDLN - Mönchengladbach

CURRENT METAR :
  • 280050Z AUTO 23006KT 7000 // OVC005/// 05/05 Q1010

EXPIRED METARs :
  • 280020Z AUTO 23004KT 210V270 6000 // OVC005/// 05/05 Q1010
  • 272350Z AUTO 24005KT 7000 // OVC006/// 05/05 Q1011
  • 272320Z AUTO 24006KT 200V270 6000 // OVC006/// 05/05 Q1011
  • 272250Z AUTO 25004KT 210V300 6000 // OVC006/// 06/05 Q1011
  • 272220Z AUTO 26004KT 230V310 6000 // OVC006/// 06/05 Q1011

TAF TAF EDLN
Valid from the 27 at 18:00 until the 28 at 03:00 UTC


271700Z 2718/2803 24005KT 6000 OVC007
TEMPO 2718/2803 3500 -RADZ BKN003



MET'MAP, your aeronautical weather chart ! - Copyright ORBIFLY December 2007 - Disclaimer

ORBIFLY MET'MAP TEAM :

Programming & Development : Alexandra Zaïnal
Concept & original design : Baudouin d'Aumeries
Assistance for programming : Marc-Olivier Méhu
Technical & hardware support : Manuel Goepfert

Contact : metmap@orbifly.com




SOURCES & CREDITS :

   NOAA